sensor_id;sensor_type;location;lat;lon;timestamp;temperature;humidity
32293;DHT22;43233;48.608;8.838;2023-06-22T00:00:56;21.80;69.30
32293;DHT22;43233;48.608;8.838;2023-06-22T00:03:23;21.80;69.70
32293;DHT22;43233;48.608;8.838;2023-06-22T00:05:49;21.70;69.80
32293;DHT22;43233;48.608;8.838;2023-06-22T00:08:16;21.70;69.60
32293;DHT22;43233;48.608;8.838;2023-06-22T00:10:42;21.60;69.40
32293;DHT22;43233;48.608;8.838;2023-06-22T00:13:08;21.50;70.00
32293;DHT22;43233;48.608;8.838;2023-06-22T00:15:35;21.40;70.50
32293;DHT22;43233;48.608;8.838;2023-06-22T00:18:01;21.20;71.40
32293;DHT22;43233;48.608;8.838;2023-06-22T00:20:28;21.20;71.90
32293;DHT22;43233;48.608;8.838;2023-06-22T00:22:54;21.10;72.30
32293;DHT22;43233;48.608;8.838;2023-06-22T00:25:21;21.10;72.40
32293;DHT22;43233;48.608;8.838;2023-06-22T00:27:47;20.90;72.80
32293;DHT22;43233;48.608;8.838;2023-06-22T00:30:13;20.90;73.30
32293;DHT22;43233;48.608;8.838;2023-06-22T00:32:38;20.90;74.00
32293;DHT22;43233;48.608;8.838;2023-06-22T00:35:04;20.90;73.10
32293;DHT22;43233;48.608;8.838;2023-06-22T00:37:30;20.90;72.90
32293;DHT22;43233;48.608;8.838;2023-06-22T00:39:56;20.90;73.10
32293;DHT22;43233;48.608;8.838;2023-06-22T00:42:22;21.00;72.90
32293;DHT22;43233;48.608;8.838;2023-06-22T00:44:48;20.90;73.30
32293;DHT22;43233;48.608;8.838;2023-06-22T00:47:16;20.80;74.00
32293;DHT22;43233;48.608;8.838;2023-06-22T00:49:44;20.60;74.50
32293;DHT22;43233;48.608;8.838;2023-06-22T00:52:12;20.60;75.30
32293;DHT22;43233;48.608;8.838;2023-06-22T00:54:47;20.50;75.70
32293;DHT22;43233;48.608;8.838;2023-06-22T00:57:16;20.50;75.90
32293;DHT22;43233;48.608;8.838;2023-06-22T00:59:46;20.40;76.40
32293;DHT22;43233;48.608;8.838;2023-06-22T01:02:13;20.40;76.80
32293;DHT22;43233;48.608;8.838;2023-06-22T01:04:39;20.50;76.70
32293;DHT22;43233;48.608;8.838;2023-06-22T01:12:45;20.30;77.80
32293;DHT22;43233;48.608;8.838;2023-06-22T01:15:41;20.30;77.70
32293;DHT22;43233;48.608;8.838;2023-06-22T01:18:09;20.30;77.60
32293;DHT22;43233;48.608;8.838;2023-06-22T01:20:36;20.40;77.30
32293;DHT22;43233;48.608;8.838;2023-06-22T01:23:21;20.40;77.40
32293;DHT22;43233;48.608;8.838;2023-06-22T01:31:10;20.50;76.60
32293;DHT22;43233;48.608;8.838;2023-06-22T01:33:41;20.40;76.60
32293;DHT22;43233;48.608;8.838;2023-06-22T01:36:07;20.40;77.00
32293;DHT22;43233;48.608;8.838;2023-06-22T01:38:34;20.30;77.30
32293;DHT22;43233;48.608;8.838;2023-06-22T01:41:01;20.30;77.30
32293;DHT22;43233;48.608;8.838;2023-06-22T01:43:28;20.40;77.80
32293;DHT22;43233;48.608;8.838;2023-06-22T01:45:55;20.30;78.50
32293;DHT22;43233;48.608;8.838;2023-06-22T01:48:22;20.30;78.40
32293;DHT22;43233;48.608;8.838;2023-06-22T01:50:49;20.40;78.60
32293;DHT22;43233;48.608;8.838;2023-06-22T01:53:14;20.40;79.10
32293;DHT22;43233;48.608;8.838;2023-06-22T01:55:40;20.40;78.80
32293;DHT22;43233;48.608;8.838;2023-06-22T01:58:06;20.20;78.60
32293;DHT22;43233;48.608;8.838;2023-06-22T02:00:34;20.20;78.20
32293;DHT22;43233;48.608;8.838;2023-06-22T02:03:14;20.20;78.60
32293;DHT22;43233;48.608;8.838;2023-06-22T02:05:54;20.20;79.20
32293;DHT22;43233;48.608;8.838;2023-06-22T02:08:28;20.20;79.10
32293;DHT22;43233;48.608;8.838;2023-06-22T02:10:55;20.10;79.30
32293;DHT22;43233;48.608;8.838;2023-06-22T02:13:24;20.10;79.70
32293;DHT22;43233;48.608;8.838;2023-06-22T02:15:50;20.10;80.60
32293;DHT22;43233;48.608;8.838;2023-06-22T02:18:16;20.10;81.00
32293;DHT22;43233;48.608;8.838;2023-06-22T02:20:41;20.10;80.60
32293;DHT22;43233;48.608;8.838;2023-06-22T02:23:07;20.10;80.40
32293;DHT22;43233;48.608;8.838;2023-06-22T02:25:34;20.20;80.30
32293;DHT22;43233;48.608;8.838;2023-06-22T02:28:00;20.20;80.10
32293;DHT22;43233;48.608;8.838;2023-06-22T02:30:25;20.30;80.30
32293;DHT22;43233;48.608;8.838;2023-06-22T02:32:51;20.30;80.00
32293;DHT22;43233;48.608;8.838;2023-06-22T02:35:32;20.30;79.70
32293;DHT22;43233;48.608;8.838;2023-06-22T02:38:01;20.40;79.50
32293;DHT22;43233;48.608;8.838;2023-06-22T02:40:28;20.40;79.40
32293;DHT22;43233;48.608;8.838;2023-06-22T02:42:55;20.40;78.90
32293;DHT22;43233;48.608;8.838;2023-06-22T02:45:20;20.50;79.00
32293;DHT22;43233;48.608;8.838;2023-06-22T02:47:46;20.50;79.00
32293;DHT22;43233;48.608;8.838;2023-06-22T02:50:13;20.50;79.00
32293;DHT22;43233;48.608;8.838;2023-06-22T02:52:39;20.50;79.00
32293;DHT22;43233;48.608;8.838;2023-06-22T02:55:05;20.40;78.90
32293;DHT22;43233;48.608;8.838;2023-06-22T02:57:32;20.50;79.00
32293;DHT22;43233;48.608;8.838;2023-06-22T02:59:58;20.40;78.90
32293;DHT22;43233;48.608;8.838;2023-06-22T03:02:24;20.40;79.00
32293;DHT22;43233;48.608;8.838;2023-06-22T03:04:51;20.40;79.00
32293;DHT22;43233;48.608;8.838;2023-06-22T03:07:19;20.30;78.90
32293;DHT22;43233;48.608;8.838;2023-06-22T03:09:45;20.30;79.10
32293;DHT22;43233;48.608;8.838;2023-06-22T03:12:10;20.30;78.90
32293;DHT22;43233;48.608;8.838;2023-06-22T03:14:36;20.30;79.00
32293;DHT22;43233;48.608;8.838;2023-06-22T03:17:02;20.30;79.10
32293;DHT22;43233;48.608;8.838;2023-06-22T03:19:29;20.30;79.10
32293;DHT22;43233;48.608;8.838;2023-06-22T03:21:57;20.20;79.00
32293;DHT22;43233;48.608;8.838;2023-06-22T03:24:23;20.20;78.90
32293;DHT22;43233;48.608;8.838;2023-06-22T03:26:48;20.20;78.90
32293;DHT22;43233;48.608;8.838;2023-06-22T03:29:14;20.20;79.10
32293;DHT22;43233;48.608;8.838;2023-06-22T03:31:39;20.20;79.30
32293;DHT22;43233;48.608;8.838;2023-06-22T03:34:05;20.20;79.20
32293;DHT22;43233;48.608;8.838;2023-06-22T03:36:31;20.10;79.10
32293;DHT22;43233;48.608;8.838;2023-06-22T03:38:56;20.20;79.20
32293;DHT22;43233;48.608;8.838;2023-06-22T03:41:22;20.10;79.20
32293;DHT22;43233;48.608;8.838;2023-06-22T03:43:48;20.10;79.20
32293;DHT22;43233;48.608;8.838;2023-06-22T03:46:13;20.10;79.30
32293;DHT22;43233;48.608;8.838;2023-06-22T03:48:39;20.10;79.20
32293;DHT22;43233;48.608;8.838;2023-06-22T03:51:04;20.10;79.10
32293;DHT22;43233;48.608;8.838;2023-06-22T03:53:30;20.10;79.20
32293;DHT22;43233;48.608;8.838;2023-06-22T03:55:56;20.10;79.20
32293;DHT22;43233;48.608;8.838;2023-06-22T03:58:21;20.10;79.40
32293;DHT22;43233;48.608;8.838;2023-06-22T04:00:51;20.10;79.30
32293;DHT22;43233;48.608;8.838;2023-06-22T04:03:17;20.00;79.30
32293;DHT22;43233;48.608;8.838;2023-06-22T04:05:46;20.00;79.50
32293;DHT22;43233;48.608;8.838;2023-06-22T04:08:13;19.90;79.60
32293;DHT22;43233;48.608;8.838;2023-06-22T04:10:39;19.90;79.70
32293;DHT22;43233;48.608;8.838;2023-06-22T04:13:05;19.90;79.90
32293;DHT22;43233;48.608;8.838;2023-06-22T04:15:30;20.00;79.80
32293;DHT22;43233;48.608;8.838;2023-06-22T04:17:56;20.00;79.80
32293;DHT22;43233;48.608;8.838;2023-06-22T04:20:22;20.00;79.80
32293;DHT22;43233;48.608;8.838;2023-06-22T04:22:51;19.90;80.20
32293;DHT22;43233;48.608;8.838;2023-06-22T04:25:17;19.90;80.70
32293;DHT22;43233;48.608;8.838;2023-06-22T04:27:42;19.90;81.10
32293;DHT22;43233;48.608;8.838;2023-06-22T04:30:08;20.00;81.30
32293;DHT22;43233;48.608;8.838;2023-06-22T04:32:35;20.00;81.20
32293;DHT22;43233;48.608;8.838;2023-06-22T04:35:03;20.00;81.10
32293;DHT22;43233;48.608;8.838;2023-06-22T04:37:32;20.10;81.10
32293;DHT22;43233;48.608;8.838;2023-06-22T04:39:58;20.10;81.00
32293;DHT22;43233;48.608;8.838;2023-06-22T04:42:26;20.10;80.60
32293;DHT22;43233;48.608;8.838;2023-06-22T04:44:52;20.20;80.40
32293;DHT22;43233;48.608;8.838;2023-06-22T04:47:17;20.30;80.70
32293;DHT22;43233;48.608;8.838;2023-06-22T04:49:43;20.30;80.50
32293;DHT22;43233;48.608;8.838;2023-06-22T04:52:11;20.40;80.10
32293;DHT22;43233;48.608;8.838;2023-06-22T04:54:38;20.40;79.90
32293;DHT22;43233;48.608;8.838;2023-06-22T04:57:06;20.50;79.60
32293;DHT22;43233;48.608;8.838;2023-06-22T04:59:37;20.50;79.50
32293;DHT22;43233;48.608;8.838;2023-06-22T05:02:05;20.60;79.30
32293;DHT22;43233;48.608;8.838;2023-06-22T05:04:31;20.60;79.10
32293;DHT22;43233;48.608;8.838;2023-06-22T05:06:58;20.70;79.00
32293;DHT22;43233;48.608;8.838;2023-06-22T05:09:24;20.70;79.00
32293;DHT22;43233;48.608;8.838;2023-06-22T05:11:50;20.70;78.80
32293;DHT22;43233;48.608;8.838;2023-06-22T05:14:16;20.80;78.50
32293;DHT22;43233;48.608;8.838;2023-06-22T05:16:43;20.80;78.20
32293;DHT22;43233;48.608;8.838;2023-06-22T05:19:09;20.90;78.20
32293;DHT22;43233;48.608;8.838;2023-06-22T05:21:35;20.90;77.80
32293;DHT22;43233;48.608;8.838;2023-06-22T05:24:01;21.00;77.50
32293;DHT22;43233;48.608;8.838;2023-06-22T05:26:29;21.00;77.40
32293;DHT22;43233;48.608;8.838;2023-06-22T05:28:55;21.00;77.10
32293;DHT22;43233;48.608;8.838;2023-06-22T05:31:21;21.10;76.80
32293;DHT22;43233;48.608;8.838;2023-06-22T05:33:48;21.10;76.40
32293;DHT22;43233;48.608;8.838;2023-06-22T05:36:14;21.10;75.90
32293;DHT22;43233;48.608;8.838;2023-06-22T05:38:40;21.20;75.50
32293;DHT22;43233;48.608;8.838;2023-06-22T05:41:06;21.20;74.60
32293;DHT22;43233;48.608;8.838;2023-06-22T05:43:32;21.20;74.60
32293;DHT22;43233;48.608;8.838;2023-06-22T05:45:59;21.20;74.50
32293;DHT22;43233;48.608;8.838;2023-06-22T05:48:25;21.20;74.30
32293;DHT22;43233;48.608;8.838;2023-06-22T05:50:50;21.30;74.50
32293;DHT22;43233;48.608;8.838;2023-06-22T05:53:16;21.30;74.40
32293;DHT22;43233;48.608;8.838;2023-06-22T05:55:42;21.30;74.20
32293;DHT22;43233;48.608;8.838;2023-06-22T05:58:08;21.40;74.30
32293;DHT22;43233;48.608;8.838;2023-06-22T06:00:34;21.40;73.70
32293;DHT22;43233;48.608;8.838;2023-06-22T06:03:00;21.50;74.10
32293;DHT22;43233;48.608;8.838;2023-06-22T06:05:32;21.50;73.90
32293;DHT22;43233;48.608;8.838;2023-06-22T06:08:00;21.50;73.50
32293;DHT22;43233;48.608;8.838;2023-06-22T06:10:26;21.60;73.80
32293;DHT22;43233;48.608;8.838;2023-06-22T06:12:52;21.60;73.50
32293;DHT22;43233;48.608;8.838;2023-06-22T06:15:18;21.70;73.30
32293;DHT22;43233;48.608;8.838;2023-06-22T06:17:51;21.70;72.70
32293;DHT22;43233;48.608;8.838;2023-06-22T06:20:19;21.80;72.60
32293;DHT22;43233;48.608;8.838;2023-06-22T06:22:45;21.90;72.00
32293;DHT22;43233;48.608;8.838;2023-06-22T06:25:10;21.90;71.80
32293;DHT22;43233;48.608;8.838;2023-06-22T06:27:44;21.90;71.90
32293;DHT22;43233;48.608;8.838;2023-06-22T06:30:11;22.00;71.60
32293;DHT22;43233;48.608;8.838;2023-06-22T06:32:37;22.10;71.10
32293;DHT22;43233;48.608;8.838;2023-06-22T06:35:08;22.10;71.00
32293;DHT22;43233;48.608;8.838;2023-06-22T06:37:41;22.20;70.60
32293;DHT22;43233;48.608;8.838;2023-06-22T06:40:08;22.20;70.80
32293;DHT22;43233;48.608;8.838;2023-06-22T06:42:37;22.30;70.20
32293;DHT22;43233;48.608;8.838;2023-06-22T06:45:04;22.30;68.80
32293;DHT22;43233;48.608;8.838;2023-06-22T06:47:30;22.30;67.80
32293;DHT22;43233;48.608;8.838;2023-06-22T06:49:56;22.40;68.80
32293;DHT22;43233;48.608;8.838;2023-06-22T06:52:21;22.40;68.70
32293;DHT22;43233;48.608;8.838;2023-06-22T06:54:47;22.50;68.00
32293;DHT22;43233;48.608;8.838;2023-06-22T06:57:13;22.60;67.60
32293;DHT22;43233;48.608;8.838;2023-06-22T06:59:39;22.70;67.90
32293;DHT22;43233;48.608;8.838;2023-06-22T07:02:04;22.70;67.90
32293;DHT22;43233;48.608;8.838;2023-06-22T07:04:30;22.80;66.80
32293;DHT22;43233;48.608;8.838;2023-06-22T07:06:56;22.80;66.20
32293;DHT22;43233;48.608;8.838;2023-06-22T07:09:21;22.80;66.70
32293;DHT22;43233;48.608;8.838;2023-06-22T07:11:47;22.90;66.00
32293;DHT22;43233;48.608;8.838;2023-06-22T07:14:12;22.90;66.70
32293;DHT22;43233;48.608;8.838;2023-06-22T07:16:38;23.00;66.40
32293;DHT22;43233;48.608;8.838;2023-06-22T07:19:03;23.00;66.50
32293;DHT22;43233;48.608;8.838;2023-06-22T07:21:29;23.10;66.80
32293;DHT22;43233;48.608;8.838;2023-06-22T07:23:55;23.20;66.40
32293;DHT22;43233;48.608;8.838;2023-06-22T07:26:21;23.20;66.60
32293;DHT22;43233;48.608;8.838;2023-06-22T07:28:47;23.30;66.50
32293;DHT22;43233;48.608;8.838;2023-06-22T07:31:13;23.40;65.70
32293;DHT22;43233;48.608;8.838;2023-06-22T07:33:38;23.50;65.00
32293;DHT22;43233;48.608;8.838;2023-06-22T07:36:04;23.50;64.70
32293;DHT22;43233;48.608;8.838;2023-06-22T07:38:33;23.60;64.10
32293;DHT22;43233;48.608;8.838;2023-06-22T07:40:59;23.60;61.90
32293;DHT22;43233;48.608;8.838;2023-06-22T07:43:25;23.70;61.70
32293;DHT22;43233;48.608;8.838;2023-06-22T07:45:50;23.70;62.20
32293;DHT22;43233;48.608;8.838;2023-06-22T07:48:22;23.80;61.70
32293;DHT22;43233;48.608;8.838;2023-06-22T07:50:48;23.80;60.90
32293;DHT22;43233;48.608;8.838;2023-06-22T07:53:14;23.90;61.00
32293;DHT22;43233;48.608;8.838;2023-06-22T07:55:40;24.00;61.50
32293;DHT22;43233;48.608;8.838;2023-06-22T07:58:05;24.00;59.70
32293;DHT22;43233;48.608;8.838;2023-06-22T08:00:31;24.10;59.40
32293;DHT22;43233;48.608;8.838;2023-06-22T08:02:58;24.00;60.00
32293;DHT22;43233;48.608;8.838;2023-06-22T08:05:24;24.10;59.60
32293;DHT22;43233;48.608;8.838;2023-06-22T08:07:50;24.20;59.30
32293;DHT22;43233;48.608;8.838;2023-06-22T08:10:16;24.30;59.00
32293;DHT22;43233;48.608;8.838;2023-06-22T08:12:41;24.50;58.10
32293;DHT22;43233;48.608;8.838;2023-06-22T08:15:07;24.60;57.90
32293;DHT22;43233;48.608;8.838;2023-06-22T08:17:33;24.70;56.30
32293;DHT22;43233;48.608;8.838;2023-06-22T08:19:59;24.60;55.80
32293;DHT22;43233;48.608;8.838;2023-06-22T08:22:25;24.50;56.60
32293;DHT22;43233;48.608;8.838;2023-06-22T08:24:50;24.50;57.30
32293;DHT22;43233;48.608;8.838;2023-06-22T08:27:16;24.50;56.90
32293;DHT22;43233;48.608;8.838;2023-06-22T08:29:44;24.60;57.10
32293;DHT22;43233;48.608;8.838;2023-06-22T08:32:11;24.60;56.80
32293;DHT22;43233;48.608;8.838;2023-06-22T08:34:37;24.60;57.00
32293;DHT22;43233;48.608;8.838;2023-06-22T08:37:08;24.70;57.50
32293;DHT22;43233;48.608;8.838;2023-06-22T08:39:33;24.70;57.00
32293;DHT22;43233;48.608;8.838;2023-06-22T08:41:59;24.80;56.20
32293;DHT22;43233;48.608;8.838;2023-06-22T08:44:25;24.90;55.80
32293;DHT22;43233;48.608;8.838;2023-06-22T08:46:51;24.90;55.70
32293;DHT22;43233;48.608;8.838;2023-06-22T08:49:16;25.00;54.80
32293;DHT22;43233;48.608;8.838;2023-06-22T08:51:42;25.10;54.50
32293;DHT22;43233;48.608;8.838;2023-06-22T08:54:09;25.10;55.20
32293;DHT22;43233;48.608;8.838;2023-06-22T08:56:35;25.10;55.30
32293;DHT22;43233;48.608;8.838;2023-06-22T08:59:01;25.10;55.80
32293;DHT22;43233;48.608;8.838;2023-06-22T09:01:27;25.10;55.90
32293;DHT22;43233;48.608;8.838;2023-06-22T09:03:52;25.10;56.10
32293;DHT22;43233;48.608;8.838;2023-06-22T09:06:23;25.20;57.10
32293;DHT22;43233;48.608;8.838;2023-06-22T09:08:49;25.30;56.10
32293;DHT22;43233;48.608;8.838;2023-06-22T09:11:14;25.30;55.20
32293;DHT22;43233;48.608;8.838;2023-06-22T09:13:40;25.50;54.30
32293;DHT22;43233;48.608;8.838;2023-06-22T09:16:06;25.50;54.60
32293;DHT22;43233;48.608;8.838;2023-06-22T09:18:33;25.60;54.30
32293;DHT22;43233;48.608;8.838;2023-06-22T09:20:59;25.70;54.20
32293;DHT22;43233;48.608;8.838;2023-06-22T09:23:25;25.90;53.20
32293;DHT22;43233;48.608;8.838;2023-06-22T09:25:50;26.00;53.60
32293;DHT22;43233;48.608;8.838;2023-06-22T09:28:16;26.10;52.60
32293;DHT22;43233;48.608;8.838;2023-06-22T09:30:45;26.20;51.90
32293;DHT22;43233;48.608;8.838;2023-06-22T09:33:10;26.20;52.10
32293;DHT22;43233;48.608;8.838;2023-06-22T09:35:36;26.30;52.00
32293;DHT22;43233;48.608;8.838;2023-06-22T09:38:02;26.30;52.30
32293;DHT22;43233;48.608;8.838;2023-06-22T09:40:27;26.40;52.90
32293;DHT22;43233;48.608;8.838;2023-06-22T09:42:53;26.50;52.50
32293;DHT22;43233;48.608;8.838;2023-06-22T09:45:18;26.70;52.00
32293;DHT22;43233;48.608;8.838;2023-06-22T09:47:44;26.70;50.80
32293;DHT22;43233;48.608;8.838;2023-06-22T09:50:10;26.80;50.60
32293;DHT22;43233;48.608;8.838;2023-06-22T09:52:35;26.90;49.60
32293;DHT22;43233;48.608;8.838;2023-06-22T09:55:01;27.00;51.10
32293;DHT22;43233;48.608;8.838;2023-06-22T09:57:29;27.10;50.70
32293;DHT22;43233;48.608;8.838;2023-06-22T09:59:55;27.20;48.50
32293;DHT22;43233;48.608;8.838;2023-06-22T10:02:21;27.30;48.70
32293;DHT22;43233;48.608;8.838;2023-06-22T10:04:47;27.40;49.50
32293;DHT22;43233;48.608;8.838;2023-06-22T10:07:13;27.40;49.80
32293;DHT22;43233;48.608;8.838;2023-06-22T10:09:39;27.50;47.20
32293;DHT22;43233;48.608;8.838;2023-06-22T10:12:04;27.60;48.30
32293;DHT22;43233;48.608;8.838;2023-06-22T10:14:30;27.80;47.10
32293;DHT22;43233;48.608;8.838;2023-06-22T10:16:56;27.80;47.10
32293;DHT22;43233;48.608;8.838;2023-06-22T10:19:22;27.80;48.20
32293;DHT22;43233;48.608;8.838;2023-06-22T10:21:48;28.00;47.00
32293;DHT22;43233;48.608;8.838;2023-06-22T10:24:13;28.00;46.60
32293;DHT22;43233;48.608;8.838;2023-06-22T10:26:39;28.00;47.80
32293;DHT22;43233;48.608;8.838;2023-06-22T10:29:05;28.00;47.20
32293;DHT22;43233;48.608;8.838;2023-06-22T10:31:30;28.20;46.30
32293;DHT22;43233;48.608;8.838;2023-06-22T10:33:56;28.30;46.60
32293;DHT22;43233;48.608;8.838;2023-06-22T10:36:22;28.40;44.40
32293;DHT22;43233;48.608;8.838;2023-06-22T10:38:48;28.50;45.40
32293;DHT22;43233;48.608;8.838;2023-06-22T10:41:14;28.60;44.80
32293;DHT22;43233;48.608;8.838;2023-06-22T10:43:40;28.70;44.60
32293;DHT22;43233;48.608;8.838;2023-06-22T10:46:06;28.80;43.90
32293;DHT22;43233;48.608;8.838;2023-06-22T10:48:32;28.80;43.80
32293;DHT22;43233;48.608;8.838;2023-06-22T10:50:58;28.90;42.50
32293;DHT22;43233;48.608;8.838;2023-06-22T10:53:23;29.00;43.90
32293;DHT22;43233;48.608;8.838;2023-06-22T10:55:49;29.10;44.60
32293;DHT22;43233;48.608;8.838;2023-06-22T10:58:15;29.20;43.80
32293;DHT22;43233;48.608;8.838;2023-06-22T11:00:40;29.30;42.60
32293;DHT22;43233;48.608;8.838;2023-06-22T11:03:06;29.20;42.00
32293;DHT22;43233;48.608;8.838;2023-06-22T11:05:32;29.20;42.20
32293;DHT22;43233;48.608;8.838;2023-06-22T11:07:57;29.20;41.10
32293;DHT22;43233;48.608;8.838;2023-06-22T11:10:23;29.20;41.00
32293;DHT22;43233;48.608;8.838;2023-06-22T11:12:49;29.10;41.60
32293;DHT22;43233;48.608;8.838;2023-06-22T11:15:14;29.10;42.70
32293;DHT22;43233;48.608;8.838;2023-06-22T11:17:40;29.20;42.20
32293;DHT22;43233;48.608;8.838;2023-06-22T11:20:06;29.30;40.70
32293;DHT22;43233;48.608;8.838;2023-06-22T11:22:39;29.30;41.30
32293;DHT22;43233;48.608;8.838;2023-06-22T11:25:06;29.40;40.60
32293;DHT22;43233;48.608;8.838;2023-06-22T11:27:32;29.50;39.60
32293;DHT22;43233;48.608;8.838;2023-06-22T11:29:57;29.60;39.50
32293;DHT22;43233;48.608;8.838;2023-06-22T11:32:23;29.60;40.30
32293;DHT22;43233;48.608;8.838;2023-06-22T11:34:49;29.60;40.70
32293;DHT22;43233;48.608;8.838;2023-06-22T11:37:15;29.60;39.90
32293;DHT22;43233;48.608;8.838;2023-06-22T11:39:42;29.70;39.40
32293;DHT22;43233;48.608;8.838;2023-06-22T11:42:07;29.60;39.90
32293;DHT22;43233;48.608;8.838;2023-06-22T11:44:34;29.60;40.50
32293;DHT22;43233;48.608;8.838;2023-06-22T11:47:00;29.50;39.70
32293;DHT22;43233;48.608;8.838;2023-06-22T11:49:26;29.50;40.00
32293;DHT22;43233;48.608;8.838;2023-06-22T11:51:52;29.50;40.60
32293;DHT22;43233;48.608;8.838;2023-06-22T11:54:18;29.50;41.10
32293;DHT22;43233;48.608;8.838;2023-06-22T11:56:44;29.50;42.00
32293;DHT22;43233;48.608;8.838;2023-06-22T11:59:09;29.40;42.00
32293;DHT22;43233;48.608;8.838;2023-06-22T12:01:35;29.40;42.00
32293;DHT22;43233;48.608;8.838;2023-06-22T12:04:01;29.40;42.60
32293;DHT22;43233;48.608;8.838;2023-06-22T12:06:26;29.40;42.50
32293;DHT22;43233;48.608;8.838;2023-06-22T12:08:52;29.40;41.90
32293;DHT22;43233;48.608;8.838;2023-06-22T12:11:18;29.30;42.50
32293;DHT22;43233;48.608;8.838;2023-06-22T12:13:43;29.30;42.90
32293;DHT22;43233;48.608;8.838;2023-06-22T12:16:09;29.20;43.30
32293;DHT22;43233;48.608;8.838;2023-06-22T12:18:35;29.30;43.70
32293;DHT22;43233;48.608;8.838;2023-06-22T12:21:00;29.20;43.60
32293;DHT22;43233;48.608;8.838;2023-06-22T12:23:26;29.20;43.90
32293;DHT22;43233;48.608;8.838;2023-06-22T12:25:52;29.30;43.90
32293;DHT22;43233;48.608;8.838;2023-06-22T12:28:17;29.30;44.50
32293;DHT22;43233;48.608;8.838;2023-06-22T12:30:43;29.40;44.20
32293;DHT22;43233;48.608;8.838;2023-06-22T12:33:09;29.50;44.60
32293;DHT22;43233;48.608;8.838;2023-06-22T12:35:34;29.40;43.90
32293;DHT22;43233;48.608;8.838;2023-06-22T12:38:00;29.50;43.30
32293;DHT22;43233;48.608;8.838;2023-06-22T12:40:26;29.40;43.80
32293;DHT22;43233;48.608;8.838;2023-06-22T12:42:51;29.40;43.80
32293;DHT22;43233;48.608;8.838;2023-06-22T12:45:17;29.40;44.20
32293;DHT22;43233;48.608;8.838;2023-06-22T12:47:44;29.30;43.70
32293;DHT22;43233;48.608;8.838;2023-06-22T12:50:09;29.30;44.50
32293;DHT22;43233;48.608;8.838;2023-06-22T12:52:37;29.30;45.10
32293;DHT22;43233;48.608;8.838;2023-06-22T12:55:05;29.30;45.20
32293;DHT22;43233;48.608;8.838;2023-06-22T12:57:31;29.30;45.10
32293;DHT22;43233;48.608;8.838;2023-06-22T12:59:56;29.30;44.80
32293;DHT22;43233;48.608;8.838;2023-06-22T13:02:24;29.30;44.50
32293;DHT22;43233;48.608;8.838;2023-06-22T13:04:49;29.30;43.70
32293;DHT22;43233;48.608;8.838;2023-06-22T13:07:15;29.30;44.30
32293;DHT22;43233;48.608;8.838;2023-06-22T13:09:40;29.30;44.60
32293;DHT22;43233;48.608;8.838;2023-06-22T13:12:07;29.30;43.80
32293;DHT22;43233;48.608;8.838;2023-06-22T13:14:32;29.30;44.00
32293;DHT22;43233;48.608;8.838;2023-06-22T13:16:58;29.30;44.50
32293;DHT22;43233;48.608;8.838;2023-06-22T13:19:23;29.30;44.90
32293;DHT22;43233;48.608;8.838;2023-06-22T13:21:49;29.40;44.00
32293;DHT22;43233;48.608;8.838;2023-06-22T13:24:15;29.30;44.30
32293;DHT22;43233;48.608;8.838;2023-06-22T13:26:41;29.30;44.30
32293;DHT22;43233;48.608;8.838;2023-06-22T13:29:07;29.30;45.30
32293;DHT22;43233;48.608;8.838;2023-06-22T13:31:33;29.20;44.60
32293;DHT22;43233;48.608;8.838;2023-06-22T13:33:58;29.20;45.50
32293;DHT22;43233;48.608;8.838;2023-06-22T13:36:24;29.10;45.60
32293;DHT22;43233;48.608;8.838;2023-06-22T13:38:50;29.00;47.90
32293;DHT22;43233;48.608;8.838;2023-06-22T13:41:15;28.90;47.20
32293;DHT22;43233;48.608;8.838;2023-06-22T13:43:41;28.90;47.50
32293;DHT22;43233;48.608;8.838;2023-06-22T13:46:06;28.90;47.50
32293;DHT22;43233;48.608;8.838;2023-06-22T13:48:32;28.90;47.70
32293;DHT22;43233;48.608;8.838;2023-06-22T13:50:58;28.90;47.80
32293;DHT22;43233;48.608;8.838;2023-06-22T13:53:24;28.90;46.30
32293;DHT22;43233;48.608;8.838;2023-06-22T13:55:51;28.90;44.80
32293;DHT22;43233;48.608;8.838;2023-06-22T13:58:16;29.00;44.70
32293;DHT22;43233;48.608;8.838;2023-06-22T14:00:42;29.10;43.40
32293;DHT22;43233;48.608;8.838;2023-06-22T14:03:08;29.10;35.40
32293;DHT22;43233;48.608;8.838;2023-06-22T14:05:33;29.20;33.30
32293;DHT22;43233;48.608;8.838;2023-06-22T14:07:59;29.30;31.70
32293;DHT22;43233;48.608;8.838;2023-06-22T14:10:24;29.40;29.30
32293;DHT22;43233;48.608;8.838;2023-06-22T14:12:50;29.40;30.00
32293;DHT22;43233;48.608;8.838;2023-06-22T14:15:15;29.60;30.90
32293;DHT22;43233;48.608;8.838;2023-06-22T14:17:41;29.60;28.80
32293;DHT22;43233;48.608;8.838;2023-06-22T14:20:07;29.60;29.60
32293;DHT22;43233;48.608;8.838;2023-06-22T14:22:33;29.50;28.30
32293;DHT22;43233;48.608;8.838;2023-06-22T14:25:00;29.60;28.70
32293;DHT22;43233;48.608;8.838;2023-06-22T14:27:26;29.60;26.80
32293;DHT22;43233;48.608;8.838;2023-06-22T14:29:52;29.50;27.00
32293;DHT22;43233;48.608;8.838;2023-06-22T14:32:18;29.40;27.30
32293;DHT22;43233;48.608;8.838;2023-06-22T14:34:44;29.40;27.00
32293;DHT22;43233;48.608;8.838;2023-06-22T14:37:10;29.30;27.20
32293;DHT22;43233;48.608;8.838;2023-06-22T14:39:36;29.30;27.50
32293;DHT22;43233;48.608;8.838;2023-06-22T14:42:02;29.40;28.70
32293;DHT22;43233;48.608;8.838;2023-06-22T14:44:31;29.50;27.70
32293;DHT22;43233;48.608;8.838;2023-06-22T14:46:57;29.60;28.10
32293;DHT22;43233;48.608;8.838;2023-06-22T14:49:23;29.70;27.50
32293;DHT22;43233;48.608;8.838;2023-06-22T14:51:48;29.90;25.90
32293;DHT22;43233;48.608;8.838;2023-06-22T14:54:14;29.90;26.30
32293;DHT22;43233;48.608;8.838;2023-06-22T14:56:39;29.90;26.40
32293;DHT22;43233;48.608;8.838;2023-06-22T14:59:06;30.00;25.90
32293;DHT22;43233;48.608;8.838;2023-06-22T15:01:31;30.00;26.30
32293;DHT22;43233;48.608;8.838;2023-06-22T15:03:57;30.00;26.40
32293;DHT22;43233;48.608;8.838;2023-06-22T15:06:23;30.00;26.40
32293;DHT22;43233;48.608;8.838;2023-06-22T15:08:48;29.90;26.20
32293;DHT22;43233;48.608;8.838;2023-06-22T15:11:14;29.90;26.70
32293;DHT22;43233;48.608;8.838;2023-06-22T15:13:40;29.90;26.80
32293;DHT22;43233;48.608;8.838;2023-06-22T15:16:07;29.90;27.90
32293;DHT22;43233;48.608;8.838;2023-06-22T15:18:33;29.70;27.10
32293;DHT22;43233;48.608;8.838;2023-06-22T15:21:00;29.70;27.60
32293;DHT22;43233;48.608;8.838;2023-06-22T15:23:27;29.50;27.70
32293;DHT22;43233;48.608;8.838;2023-06-22T15:25:54;29.40;28.10
32293;DHT22;43233;48.608;8.838;2023-06-22T15:28:20;29.40;29.00
32293;DHT22;43233;48.608;8.838;2023-06-22T15:30:49;29.40;28.70
32293;DHT22;43233;48.608;8.838;2023-06-22T15:33:15;29.40;27.90
32293;DHT22;43233;48.608;8.838;2023-06-22T15:35:41;29.30;28.30